sensor_id;sensor_type;location;lat;lon;timestamp;temperature;humidity
44487;DHT22;30191;50.908;6.962;2022-12-07T00:01:34;6.30;99.90
44487;DHT22;30191;50.908;6.962;2022-12-07T00:04:02;6.30;99.90
44487;DHT22;30191;50.908;6.962;2022-12-07T00:06:37;6.30;99.90
44487;DHT22;30191;50.908;6.962;2022-12-07T00:09:04;6.30;99.90
44487;DHT22;30191;50.908;6.962;2022-12-07T00:11:31;6.20;99.90
44487;DHT22;30191;50.908;6.962;2022-12-07T00:13:59;6.30;99.90
44487;DHT22;30191;50.908;6.962;2022-12-07T00:16:28;6.30;99.90
44487;DHT22;30191;50.908;6.962;2022-12-07T00:18:54;6.30;99.90
44487;DHT22;30191;50.908;6.962;2022-12-07T00:21:25;6.20;99.90
44487;DHT22;30191;50.908;6.962;2022-12-07T00:23:52;6.30;99.90
44487;DHT22;30191;50.908;6.962;2022-12-07T00:26:22;6.20;99.90
44487;DHT22;30191;50.908;6.962;2022-12-07T00:28:50;6.30;99.90
44487;DHT22;30191;50.908;6.962;2022-12-07T00:31:18;6.30;99.90
44487;DHT22;30191;50.908;6.962;2022-12-07T00:33:44;6.20;99.90
44487;DHT22;30191;50.908;6.962;2022-12-07T00:36:13;6.20;99.90
44487;DHT22;30191;50.908;6.962;2022-12-07T00:38:39;6.20;99.90
44487;DHT22;30191;50.908;6.962;2022-12-07T00:41:09;6.20;99.90
44487;DHT22;30191;50.908;6.962;2022-12-07T00:43:35;6.20;99.90
44487;DHT22;30191;50.908;6.962;2022-12-07T00:46:01;6.20;99.90
44487;DHT22;30191;50.908;6.962;2022-12-07T00:48:26;6.20;99.90
44487;DHT22;30191;50.908;6.962;2022-12-07T00:50:52;6.20;99.90
44487;DHT22;30191;50.908;6.962;2022-12-07T00:53:18;6.20;99.90
44487;DHT22;30191;50.908;6.962;2022-12-07T00:55:44;6.10;99.90
44487;DHT22;30191;50.908;6.962;2022-12-07T00:58:10;6.10;99.90
44487;DHT22;30191;50.908;6.962;2022-12-07T01:00:38;6.20;99.90
44487;DHT22;30191;50.908;6.962;2022-12-07T01:03:05;6.20;99.90
44487;DHT22;30191;50.908;6.962;2022-12-07T01:05:30;6.20;99.90
44487;DHT22;30191;50.908;6.962;2022-12-07T01:07:56;6.20;99.90
44487;DHT22;30191;50.908;6.962;2022-12-07T01:10:22;6.20;99.90
44487;DHT22;30191;50.908;6.962;2022-12-07T01:12:47;6.20;99.90
44487;DHT22;30191;50.908;6.962;2022-12-07T01:15:13;6.20;99.90
44487;DHT22;30191;50.908;6.962;2022-12-07T01:17:39;6.20;99.90
44487;DHT22;30191;50.908;6.962;2022-12-07T01:20:05;6.20;99.90
44487;DHT22;30191;50.908;6.962;2022-12-07T01:22:31;6.20;99.90
44487;DHT22;30191;50.908;6.962;2022-12-07T01:24:56;6.30;99.90
44487;DHT22;30191;50.908;6.962;2022-12-07T01:27:22;6.30;99.90
44487;DHT22;30191;50.908;6.962;2022-12-07T01:29:48;6.30;99.90
44487;DHT22;30191;50.908;6.962;2022-12-07T01:32:13;6.30;99.90
44487;DHT22;30191;50.908;6.962;2022-12-07T01:34:39;6.30;99.90
44487;DHT22;30191;50.908;6.962;2022-12-07T01:37:05;6.30;99.90
44487;DHT22;30191;50.908;6.962;2022-12-07T01:39:30;6.30;99.90
44487;DHT22;30191;50.908;6.962;2022-12-07T01:41:56;6.30;99.90
44487;DHT22;30191;50.908;6.962;2022-12-07T01:44:26;6.40;99.90
44487;DHT22;30191;50.908;6.962;2022-12-07T01:46:56;6.30;99.90
44487;DHT22;30191;50.908;6.962;2022-12-07T01:49:41;6.30;99.90
44487;DHT22;30191;50.908;6.962;2022-12-07T01:52:19;6.30;99.90
44487;DHT22;30191;50.908;6.962;2022-12-07T01:54:47;6.30;99.90
44487;DHT22;30191;50.908;6.962;2022-12-07T01:57:15;6.30;99.90
44487;DHT22;30191;50.908;6.962;2022-12-07T01:59:43;6.30;99.90
44487;DHT22;30191;50.908;6.962;2022-12-07T02:02:16;6.30;99.90
44487;DHT22;30191;50.908;6.962;2022-12-07T02:04:44;6.40;99.90
44487;DHT22;30191;50.908;6.962;2022-12-07T02:07:09;6.30;99.90
44487;DHT22;30191;50.908;6.962;2022-12-07T02:09:35;6.30;99.90
44487;DHT22;30191;50.908;6.962;2022-12-07T02:12:01;6.30;99.90
44487;DHT22;30191;50.908;6.962;2022-12-07T02:14:27;6.30;99.90
44487;DHT22;30191;50.908;6.962;2022-12-07T02:24:54;6.40;99.90
44487;DHT22;30191;50.908;6.962;2022-12-07T02:30:08;6.40;99.90
44487;DHT22;30191;50.908;6.962;2022-12-07T02:32:58;6.40;99.90
44487;DHT22;30191;50.908;6.962;2022-12-07T02:35:37;6.40;99.90
44487;DHT22;30191;50.908;6.962;2022-12-07T02:41:09;6.40;99.90
44487;DHT22;30191;50.908;6.962;2022-12-07T02:44:15;6.30;99.90
44487;DHT22;30191;50.908;6.962;2022-12-07T02:46:37;6.40;99.90
44487;DHT22;30191;50.908;6.962;2022-12-07T02:49:05;6.40;99.90
44487;DHT22;30191;50.908;6.962;2022-12-07T02:51:33;6.30;99.90
44487;DHT22;30191;50.908;6.962;2022-12-07T02:54:00;6.40;99.90
44487;DHT22;30191;50.908;6.962;2022-12-07T02:56:39;6.40;99.90
44487;DHT22;30191;50.908;6.962;2022-12-07T03:12:12;6.30;99.90
44487;DHT22;30191;50.908;6.962;2022-12-07T03:14:52;6.30;99.90
44487;DHT22;30191;50.908;6.962;2022-12-07T03:17:23;6.30;99.90
44487;DHT22;30191;50.908;6.962;2022-12-07T03:19:53;6.30;99.90
44487;DHT22;30191;50.908;6.962;2022-12-07T03:22:21;6.30;99.90
44487;DHT22;30191;50.908;6.962;2022-12-07T03:24:53;6.30;99.90
44487;DHT22;30191;50.908;6.962;2022-12-07T03:27:24;6.30;99.90
44487;DHT22;30191;50.908;6.962;2022-12-07T03:30:06;6.30;99.90
44487;DHT22;30191;50.908;6.962;2022-12-07T03:32:43;6.30;99.90
44487;DHT22;30191;50.908;6.962;2022-12-07T03:38:00;6.30;99.90
44487;DHT22;30191;50.908;6.962;2022-12-07T03:40:35;6.30;99.90
44487;DHT22;30191;50.908;6.962;2022-12-07T03:43:03;6.30;99.90
44487;DHT22;30191;50.908;6.962;2022-12-07T03:45:44;6.30;99.90
44487;DHT22;30191;50.908;6.962;2022-12-07T03:48:24;6.30;99.90
44487;DHT22;30191;50.908;6.962;2022-12-07T03:51:13;6.30;99.90
44487;DHT22;30191;50.908;6.962;2022-12-07T03:54:07;6.30;99.90
44487;DHT22;30191;50.908;6.962;2022-12-07T03:56:31;6.30;99.90
44487;DHT22;30191;50.908;6.962;2022-12-07T03:58:57;6.30;99.90
44487;DHT22;30191;50.908;6.962;2022-12-07T04:01:24;6.30;99.90
44487;DHT22;30191;50.908;6.962;2022-12-07T04:03:49;6.30;99.90
44487;DHT22;30191;50.908;6.962;2022-12-07T04:06:15;6.30;99.90
44487;DHT22;30191;50.908;6.962;2022-12-07T04:08:41;6.30;99.90
44487;DHT22;30191;50.908;6.962;2022-12-07T04:11:07;6.30;99.90
44487;DHT22;30191;50.908;6.962;2022-12-07T04:13:32;6.30;99.90
44487;DHT22;30191;50.908;6.962;2022-12-07T04:16:18;6.30;99.90
44487;DHT22;30191;50.908;6.962;2022-12-07T04:18:44;6.30;99.90
44487;DHT22;30191;50.908;6.962;2022-12-07T04:21:10;6.30;99.90
44487;DHT22;30191;50.908;6.962;2022-12-07T04:23:35;6.30;99.90
44487;DHT22;30191;50.908;6.962;2022-12-07T04:26:01;6.30;99.90
44487;DHT22;30191;50.908;6.962;2022-12-07T04:28:26;6.30;99.90
44487;DHT22;30191;50.908;6.962;2022-12-07T04:30:52;6.30;99.90
44487;DHT22;30191;50.908;6.962;2022-12-07T04:33:18;6.30;99.90
44487;DHT22;30191;50.908;6.962;2022-12-07T04:35:43;6.20;99.90
44487;DHT22;30191;50.908;6.962;2022-12-07T04:38:09;6.30;99.90
44487;DHT22;30191;50.908;6.962;2022-12-07T04:40:34;6.30;99.90
44487;DHT22;30191;50.908;6.962;2022-12-07T04:43:00;6.20;99.90
44487;DHT22;30191;50.908;6.962;2022-12-07T04:45:26;6.20;99.90
44487;DHT22;30191;50.908;6.962;2022-12-07T04:47:51;6.30;99.90
44487;DHT22;30191;50.908;6.962;2022-12-07T04:50:17;6.20;99.90
44487;DHT22;30191;50.908;6.962;2022-12-07T04:52:43;6.20;99.90
44487;DHT22;30191;50.908;6.962;2022-12-07T04:55:08;6.10;99.90
44487;DHT22;30191;50.908;6.962;2022-12-07T04:57:34;6.10;99.90
44487;DHT22;30191;50.908;6.962;2022-12-07T05:00:00;6.10;99.90
44487;DHT22;30191;50.908;6.962;2022-12-07T05:02:25;6.20;99.90
44487;DHT22;30191;50.908;6.962;2022-12-07T05:04:51;6.20;99.90
44487;DHT22;30191;50.908;6.962;2022-12-07T05:07:16;6.20;99.90
44487;DHT22;30191;50.908;6.962;2022-12-07T05:09:42;6.20;99.90
44487;DHT22;30191;50.908;6.962;2022-12-07T05:12:08;6.20;99.90
44487;DHT22;30191;50.908;6.962;2022-12-07T05:14:33;6.20;99.90
44487;DHT22;30191;50.908;6.962;2022-12-07T05:16:59;6.20;99.90
44487;DHT22;30191;50.908;6.962;2022-12-07T05:19:25;6.20;99.90
44487;DHT22;30191;50.908;6.962;2022-12-07T05:21:51;6.20;99.90
44487;DHT22;30191;50.908;6.962;2022-12-07T05:24:17;6.20;99.90
44487;DHT22;30191;50.908;6.962;2022-12-07T05:26:44;6.20;99.90
44487;DHT22;30191;50.908;6.962;2022-12-07T05:29:12;6.20;99.90
44487;DHT22;30191;50.908;6.962;2022-12-07T05:31:38;6.20;99.90
44487;DHT22;30191;50.908;6.962;2022-12-07T05:34:04;6.20;99.90
44487;DHT22;30191;50.908;6.962;2022-12-07T05:36:29;6.20;99.90
44487;DHT22;30191;50.908;6.962;2022-12-07T05:38:57;6.10;99.90
44487;DHT22;30191;50.908;6.962;2022-12-07T05:41:23;6.20;99.90
44487;DHT22;30191;50.908;6.962;2022-12-07T05:44:07;6.10;99.90
44487;DHT22;30191;50.908;6.962;2022-12-07T05:46:33;6.10;99.90
44487;DHT22;30191;50.908;6.962;2022-12-07T05:49:00;6.20;99.90
44487;DHT22;30191;50.908;6.962;2022-12-07T05:51:25;6.10;99.90
44487;DHT22;30191;50.908;6.962;2022-12-07T05:53:51;6.20;99.90
44487;DHT22;30191;50.908;6.962;2022-12-07T05:56:17;6.10;99.90
44487;DHT22;30191;50.908;6.962;2022-12-07T05:58:42;6.10;99.90
44487;DHT22;30191;50.908;6.962;2022-12-07T06:01:27;6.10;99.90
44487;DHT22;30191;50.908;6.962;2022-12-07T06:03:52;6.10;99.90
44487;DHT22;30191;50.908;6.962;2022-12-07T06:06:18;6.10;99.90
44487;DHT22;30191;50.908;6.962;2022-12-07T06:08:44;6.10;99.90
44487;DHT22;30191;50.908;6.962;2022-12-07T06:11:09;6.10;99.90
44487;DHT22;30191;50.908;6.962;2022-12-07T06:13:53;6.10;99.90
44487;DHT22;30191;50.908;6.962;2022-12-07T06:16:19;6.10;99.90
44487;DHT22;30191;50.908;6.962;2022-12-07T06:18:44;6.10;99.90
44487;DHT22;30191;50.908;6.962;2022-12-07T06:21:10;6.00;99.90
44487;DHT22;30191;50.908;6.962;2022-12-07T06:23:36;6.00;99.90
44487;DHT22;30191;50.908;6.962;2022-12-07T06:26:01;6.00;99.90
44487;DHT22;30191;50.908;6.962;2022-12-07T06:28:27;6.00;99.90
44487;DHT22;30191;50.908;6.962;2022-12-07T06:31:01;6.00;99.90
44487;DHT22;30191;50.908;6.962;2022-12-07T06:33:27;6.00;99.90
44487;DHT22;30191;50.908;6.962;2022-12-07T06:35:53;6.00;99.90
44487;DHT22;30191;50.908;6.962;2022-12-07T06:38:19;6.00;99.90
44487;DHT22;30191;50.908;6.962;2022-12-07T06:40:44;6.00;99.90
44487;DHT22;30191;50.908;6.962;2022-12-07T06:43:10;6.00;99.90
44487;DHT22;30191;50.908;6.962;2022-12-07T06:45:35;6.00;99.90
44487;DHT22;30191;50.908;6.962;2022-12-07T06:48:01;6.00;99.90
44487;DHT22;30191;50.908;6.962;2022-12-07T06:50:29;6.00;99.90
44487;DHT22;30191;50.908;6.962;2022-12-07T06:52:55;6.00;99.90
44487;DHT22;30191;50.908;6.962;2022-12-07T06:55:21;6.00;99.90
44487;DHT22;30191;50.908;6.962;2022-12-07T06:57:46;6.00;99.90
44487;DHT22;30191;50.908;6.962;2022-12-07T07:00:13;6.00;99.90
44487;DHT22;30191;50.908;6.962;2022-12-07T07:02:39;6.00;99.90
44487;DHT22;30191;50.908;6.962;2022-12-07T07:05:05;6.00;99.90
44487;DHT22;30191;50.908;6.962;2022-12-07T07:07:30;6.00;99.90
44487;DHT22;30191;50.908;6.962;2022-12-07T07:09:56;6.00;99.90
44487;DHT22;30191;50.908;6.962;2022-12-07T07:12:22;6.00;99.90
44487;DHT22;30191;50.908;6.962;2022-12-07T07:14:47;6.00;99.90
44487;DHT22;30191;50.908;6.962;2022-12-07T07:17:13;6.00;99.90
44487;DHT22;30191;50.908;6.962;2022-12-07T07:19:38;6.00;99.90
44487;DHT22;30191;50.908;6.962;2022-12-07T07:22:04;6.10;99.90
44487;DHT22;30191;50.908;6.962;2022-12-07T07:24:30;6.00;99.90
44487;DHT22;30191;50.908;6.962;2022-12-07T07:26:56;6.10;99.90
44487;DHT22;30191;50.908;6.962;2022-12-07T07:29:21;6.00;99.90
44487;DHT22;30191;50.908;6.962;2022-12-07T07:31:47;6.00;99.90
44487;DHT22;30191;50.908;6.962;2022-12-07T07:34:12;6.00;99.90
44487;DHT22;30191;50.908;6.962;2022-12-07T07:36:38;6.00;99.90
44487;DHT22;30191;50.908;6.962;2022-12-07T07:39:04;6.00;99.90
44487;DHT22;30191;50.908;6.962;2022-12-07T07:41:30;6.00;99.90
44487;DHT22;30191;50.908;6.962;2022-12-07T07:43:57;6.10;99.90
44487;DHT22;30191;50.908;6.962;2022-12-07T07:46:22;6.00;99.90
44487;DHT22;30191;50.908;6.962;2022-12-07T07:48:48;6.10;99.90
44487;DHT22;30191;50.908;6.962;2022-12-07T07:51:14;6.10;99.90
44487;DHT22;30191;50.908;6.962;2022-12-07T07:53:39;6.00;99.90
44487;DHT22;30191;50.908;6.962;2022-12-07T07:56:05;6.00;99.90
44487;DHT22;30191;50.908;6.962;2022-12-07T07:58:31;6.00;99.90
44487;DHT22;30191;50.908;6.962;2022-12-07T08:00:56;6.00;99.90
44487;DHT22;30191;50.908;6.962;2022-12-07T08:03:22;6.10;99.90
44487;DHT22;30191;50.908;6.962;2022-12-07T08:05:48;6.10;99.90
44487;DHT22;30191;50.908;6.962;2022-12-07T08:08:13;6.10;99.90
44487;DHT22;30191;50.908;6.962;2022-12-07T08:10:39;6.10;99.90
44487;DHT22;30191;50.908;6.962;2022-12-07T08:13:05;6.10;99.90
44487;DHT22;30191;50.908;6.962;2022-12-07T08:15:38;6.10;99.90
44487;DHT22;30191;50.908;6.962;2022-12-07T08:18:04;6.20;99.90
44487;DHT22;30191;50.908;6.962;2022-12-07T08:20:31;6.20;99.90
44487;DHT22;30191;50.908;6.962;2022-12-07T08:22:58;6.20;99.90
44487;DHT22;30191;50.908;6.962;2022-12-07T08:25:24;6.20;99.90
44487;DHT22;30191;50.908;6.962;2022-12-07T08:27:51;6.20;99.90
44487;DHT22;30191;50.908;6.962;2022-12-07T08:30:17;6.20;99.90
44487;DHT22;30191;50.908;6.962;2022-12-07T08:32:44;6.20;99.90
44487;DHT22;30191;50.908;6.962;2022-12-07T08:35:10;6.20;99.90
44487;DHT22;30191;50.908;6.962;2022-12-07T08:37:36;6.20;99.90
44487;DHT22;30191;50.908;6.962;2022-12-07T08:40:04;6.20;99.90
44487;DHT22;30191;50.908;6.962;2022-12-07T08:42:30;6.20;99.90
44487;DHT22;30191;50.908;6.962;2022-12-07T08:45:05;6.20;99.90
44487;DHT22;30191;50.908;6.962;2022-12-07T08:47:31;6.30;99.90
44487;DHT22;30191;50.908;6.962;2022-12-07T08:49:57;6.30;99.90
44487;DHT22;30191;50.908;6.962;2022-12-07T08:52:31;6.30;99.90
44487;DHT22;30191;50.908;6.962;2022-12-07T08:54:58;6.30;99.90
44487;DHT22;30191;50.908;6.962;2022-12-07T08:57:26;6.30;99.90
44487;DHT22;30191;50.908;6.962;2022-12-07T08:59:52;6.30;99.90
44487;DHT22;30191;50.908;6.962;2022-12-07T09:02:18;6.30;99.90
44487;DHT22;30191;50.908;6.962;2022-12-07T09:04:43;6.30;99.90
44487;DHT22;30191;50.908;6.962;2022-12-07T09:07:09;6.30;99.90
44487;DHT22;30191;50.908;6.962;2022-12-07T09:09:35;6.40;99.90
44487;DHT22;30191;50.908;6.962;2022-12-07T09:12:00;6.40;99.90
44487;DHT22;30191;50.908;6.962;2022-12-07T09:14:26;6.40;99.90
44487;DHT22;30191;50.908;6.962;2022-12-07T09:16:52;6.50;99.90
44487;DHT22;30191;50.908;6.962;2022-12-07T09:19:17;6.50;99.90
44487;DHT22;30191;50.908;6.962;2022-12-07T09:21:43;6.50;99.90
44487;DHT22;30191;50.908;6.962;2022-12-07T09:24:09;6.50;99.90
44487;DHT22;30191;50.908;6.962;2022-12-07T09:26:34;6.60;99.90
44487;DHT22;30191;50.908;6.962;2022-12-07T09:29:01;6.60;99.90
44487;DHT22;30191;50.908;6.962;2022-12-07T09:31:27;6.60;99.90
44487;DHT22;30191;50.908;6.962;2022-12-07T09:33:55;6.60;99.90
44487;DHT22;30191;50.908;6.962;2022-12-07T09:36:20;6.60;99.90
44487;DHT22;30191;50.908;6.962;2022-12-07T09:38:46;6.70;99.90
44487;DHT22;30191;50.908;6.962;2022-12-07T09:41:12;6.70;99.90
44487;DHT22;30191;50.908;6.962;2022-12-07T09:43:39;6.70;99.90
44487;DHT22;30191;50.908;6.962;2022-12-07T09:46:05;6.70;99.90
44487;DHT22;30191;50.908;6.962;2022-12-07T09:48:34;6.80;99.90
44487;DHT22;30191;50.908;6.962;2022-12-07T09:51:02;6.80;99.90
44487;DHT22;30191;50.908;6.962;2022-12-07T09:53:36;6.80;99.90
44487;DHT22;30191;50.908;6.962;2022-12-07T09:56:03;6.80;99.90
44487;DHT22;30191;50.908;6.962;2022-12-07T09:58:30;6.80;99.90
44487;DHT22;30191;50.908;6.962;2022-12-07T10:01:00;6.80;99.90
44487;DHT22;30191;50.908;6.962;2022-12-07T10:03:29;6.80;99.90
44487;DHT22;30191;50.908;6.962;2022-12-07T10:05:55;6.90;99.90
44487;DHT22;30191;50.908;6.962;2022-12-07T10:08:22;6.90;99.90
44487;DHT22;30191;50.908;6.962;2022-12-07T10:10:53;6.90;99.90
44487;DHT22;30191;50.908;6.962;2022-12-07T10:13:21;7.00;99.90
44487;DHT22;30191;50.908;6.962;2022-12-07T10:15:56;7.00;99.90
44487;DHT22;30191;50.908;6.962;2022-12-07T10:18:35;7.10;99.90
44487;DHT22;30191;50.908;6.962;2022-12-07T10:21:16;7.20;99.90
44487;DHT22;30191;50.908;6.962;2022-12-07T10:26:38;7.20;99.90
44487;DHT22;30191;50.908;6.962;2022-12-07T10:31:42;7.20;99.90
44487;DHT22;30191;50.908;6.962;2022-12-07T10:34:36;7.10;99.90
44487;DHT22;30191;50.908;6.962;2022-12-07T10:42:19;7.20;99.90
44487;DHT22;30191;50.908;6.962;2022-12-07T10:44:45;7.20;99.90
44487;DHT22;30191;50.908;6.962;2022-12-07T10:47:35;7.20;99.90
44487;DHT22;30191;50.908;6.962;2022-12-07T10:50:17;7.20;99.90
44487;DHT22;30191;50.908;6.962;2022-12-07T11:06:18;7.50;99.90
44487;DHT22;30191;50.908;6.962;2022-12-07T11:14:31;7.30;99.90
44487;DHT22;30191;50.908;6.962;2022-12-07T11:17:09;7.30;99.90
44487;DHT22;30191;50.908;6.962;2022-12-07T11:22:32;7.20;99.90
44487;DHT22;30191;50.908;6.962;2022-12-07T11:27:39;7.20;99.90
44487;DHT22;30191;50.908;6.962;2022-12-07T11:30:18;7.20;99.90
44487;DHT22;30191;50.908;6.962;2022-12-07T11:32:56;7.30;99.90
44487;DHT22;30191;50.908;6.962;2022-12-07T11:38:18;7.40;99.90
44487;DHT22;30191;50.908;6.962;2022-12-07T11:40:49;7.40;99.90
44487;DHT22;30191;50.908;6.962;2022-12-07T11:43:24;7.40;99.90
44487;DHT22;30191;50.908;6.962;2022-12-07T11:46:03;7.40;99.90
44487;DHT22;30191;50.908;6.962;2022-12-07T11:48:35;7.40;99.90
44487;DHT22;30191;50.908;6.962;2022-12-07T11:51:08;7.30;99.90
44487;DHT22;30191;50.908;6.962;2022-12-07T11:53:45;7.30;99.90
44487;DHT22;30191;50.908;6.962;2022-12-07T11:56:17;7.30;99.90
44487;DHT22;30191;50.908;6.962;2022-12-07T12:03:43;7.30;99.90
44487;DHT22;30191;50.908;6.962;2022-12-07T12:06:10;7.30;99.90
44487;DHT22;30191;50.908;6.962;2022-12-07T12:11:54;7.30;99.90
44487;DHT22;30191;50.908;6.962;2022-12-07T12:22:42;7.20;99.90
44487;DHT22;30191;50.908;6.962;2022-12-07T12:25:25;7.20;99.90
44487;DHT22;30191;50.908;6.962;2022-12-07T12:27:52;7.20;99.90
44487;DHT22;30191;50.908;6.962;2022-12-07T12:30:36;7.20;99.90
44487;DHT22;30191;50.908;6.962;2022-12-07T12:33:26;7.20;99.90
44487;DHT22;30191;50.908;6.962;2022-12-07T12:46:52;7.20;99.90
44487;DHT22;30191;50.908;6.962;2022-12-07T13:01:48;7.10;99.90
44487;DHT22;30191;50.908;6.962;2022-12-07T13:04:25;7.10;99.90
44487;DHT22;30191;50.908;6.962;2022-12-07T13:06:51;7.10;99.90
44487;DHT22;30191;50.908;6.962;2022-12-07T13:09:35;7.20;99.90
44487;DHT22;30191;50.908;6.962;2022-12-07T13:12:04;7.20;99.90
44487;DHT22;30191;50.908;6.962;2022-12-07T13:14:56;7.20;99.90
44487;DHT22;30191;50.908;6.962;2022-12-07T13:20:04;7.20;99.90
44487;DHT22;30191;50.908;6.962;2022-12-07T13:27:56;7.20;99.90
44487;DHT22;30191;50.908;6.962;2022-12-07T13:30:22;7.30;99.90
44487;DHT22;30191;50.908;6.962;2022-12-07T13:32:57;7.20;99.90
44487;DHT22;30191;50.908;6.962;2022-12-07T13:35:30;7.20;99.90
44487;DHT22;30191;50.908;6.962;2022-12-07T13:37:57;7.30;99.90
44487;DHT22;30191;50.908;6.962;2022-12-07T13:40:23;7.20;99.90
44487;DHT22;30191;50.908;6.962;2022-12-07T13:43:01;7.20;99.90
44487;DHT22;30191;50.908;6.962;2022-12-07T13:45:30;7.20;99.90
44487;DHT22;30191;50.908;6.962;2022-12-07T13:50:52;7.30;99.90
44487;DHT22;30191;50.908;6.962;2022-12-07T13:53:18;7.30;99.90
44487;DHT22;30191;50.908;6.962;2022-12-07T13:55:45;7.30;99.90
44487;DHT22;30191;50.908;6.962;2022-12-07T13:58:11;7.30;99.90
44487;DHT22;30191;50.908;6.962;2022-12-07T14:00:37;7.30;99.90
44487;DHT22;30191;50.908;6.962;2022-12-07T14:03:23;7.30;99.90
44487;DHT22;30191;50.908;6.962;2022-12-07T14:08:30;7.30;99.90
44487;DHT22;30191;50.908;6.962;2022-12-07T14:10:56;7.30;99.90
44487;DHT22;30191;50.908;6.962;2022-12-07T14:15:54;7.30;99.90
44487;DHT22;30191;50.908;6.962;2022-12-07T14:18:37;7.30;99.90
44487;DHT22;30191;50.908;6.962;2022-12-07T14:21:15;7.30;99.90
44487;DHT22;30191;50.908;6.962;2022-12-07T14:23:42;7.30;99.90
44487;DHT22;30191;50.908;6.962;2022-12-07T14:26:18;7.30;99.90
44487;DHT22;30191;50.908;6.962;2022-12-07T14:28:45;7.20;99.90
44487;DHT22;30191;50.908;6.962;2022-12-07T14:31:18;7.30;99.90
44487;DHT22;30191;50.908;6.962;2022-12-07T14:33:46;7.30;99.90
44487;DHT22;30191;50.908;6.962;2022-12-07T14:36:13;7.30;99.90
44487;DHT22;30191;50.908;6.962;2022-12-07T14:38:39;7.30;99.90
44487;DHT22;30191;50.908;6.962;2022-12-07T14:41:12;7.30;99.90
44487;DHT22;30191;50.908;6.962;2022-12-07T14:43:57;7.30;99.90
44487;DHT22;30191;50.908;6.962;2022-12-07T14:46:23;7.30;99.90
44487;DHT22;30191;50.908;6.962;2022-12-07T14:48:49;7.30;99.90
44487;DHT22;30191;50.908;6.962;2022-12-07T14:51:15;7.30;99.90
44487;DHT22;30191;50.908;6.962;2022-12-07T14:53:48;7.20;99.90
44487;DHT22;30191;50.908;6.962;2022-12-07T14:56:14;7.20;99.90
44487;DHT22;30191;50.908;6.962;2022-12-07T14:58:40;7.20;99.90
44487;DHT22;30191;50.908;6.962;2022-12-07T15:01:06;7.20;99.90
44487;DHT22;30191;50.908;6.962;2022-12-07T15:03:32;7.20;99.90
44487;DHT22;30191;50.908;6.962;2022-12-07T15:06:00;7.30;99.90
44487;DHT22;30191;50.908;6.962;2022-12-07T15:08:26;7.30;99.90
44487;DHT22;30191;50.908;6.962;2022-12-07T15:10:52;7.30;99.90
44487;DHT22;30191;50.908;6.962;2022-12-07T15:13:18;7.20;99.90
44487;DHT22;30191;50.908;6.962;2022-12-07T15:16:14;7.20;99.90
44487;DHT22;30191;50.908;6.962;2022-12-07T15:18:42;7.20;99.90
44487;DHT22;30191;50.908;6.962;2022-12-07T15:21:14;7.20;99.90
44487;DHT22;30191;50.908;6.962;2022-12-07T15:23:39;7.20;99.90
44487;DHT22;30191;50.908;6.962;2022-12-07T15:26:05;7.20;99.90
44487;DHT22;30191;50.908;6.962;2022-12-07T15:28:31;7.10;99.90
44487;DHT22;30191;50.908;6.962;2022-12-07T15:30:56;7.10;99.90
44487;DHT22;30191;50.908;6.962;2022-12-07T15:33:22;7.10;99.90
44487;DHT22;30191;50.908;6.962;2022-12-07T15:35:48;7.20;99.90
44487;DHT22;30191;50.908;6.962;2022-12-07T15:38:13;7.20;99.90
44487;DHT22;30191;50.908;6.962;2022-12-07T15:40:39;7.10;99.90
44487;DHT22;30191;50.908;6.962;2022-12-07T15:43:05;7.10;99.90
44487;DHT22;30191;50.908;6.962;2022-12-07T15:45:50;7.10;99.90
44487;DHT22;30191;50.908;6.962;2022-12-07T15:48:16;7.10;99.90
44487;DHT22;30191;50.908;6.962;2022-12-07T15:50:42;7.00;99.90
44487;DHT22;30191;50.908;6.962;2022-12-07T15:53:08;6.90;99.90
44487;DHT22;30191;50.908;6.962;2022-12-07T15:55:33;6.80;99.90
44487;DHT22;30191;50.908;6.962;2022-12-07T15:57:59;6.80;99.90
44487;DHT22;30191;50.908;6.962;2022-12-07T16:00:26;6.80;99.90
44487;DHT22;30191;50.908;6.962;2022-12-07T16:02:52;6.80;99.90
44487;DHT22;30191;50.908;6.962;2022-12-07T16:05:17;6.90;99.90
44487;DHT22;30191;50.908;6.962;2022-12-07T16:07:43;7.00;99.90
44487;DHT22;30191;50.908;6.962;2022-12-07T16:10:11;6.90;99.90
44487;DHT22;30191;50.908;6.962;2022-12-07T16:12:37;6.90;99.90
44487;DHT22;30191;50.908;6.962;2022-12-07T16:15:03;6.80;99.90
44487;DHT22;30191;50.908;6.962;2022-12-07T16:17:28;6.80;99.90
44487;DHT22;30191;50.908;6.962;2022-12-07T16:19:54;6.80;99.90
44487;DHT22;30191;50.908;6.962;2022-12-07T16:22:20;6.80;99.90
44487;DHT22;30191;50.908;6.962;2022-12-07T16:24:46;6.80;99.90
44487;DHT22;30191;50.908;6.962;2022-12-07T16:27:11;6.80;99.90
44487;DHT22;30191;50.908;6.962;2022-12-07T16:29:37;6.70;99.90
44487;DHT22;30191;50.908;6.962;2022-12-07T16:32:03;6.70;99.90
44487;DHT22;30191;50.908;6.962;2022-12-07T16:34:28;6.60;99.90
44487;DHT22;30191;50.908;6.962;2022-12-07T16:36:54;6.70;99.90
44487;DHT22;30191;50.908;6.962;2022-12-07T16:39:19;6.60;99.90
44487;DHT22;30191;50.908;6.962;2022-12-07T16:41:45;6.70;99.90
44487;DHT22;30191;50.908;6.962;2022-12-07T16:44:12;6.70;99.90
44487;DHT22;30191;50.908;6.962;2022-12-07T16:46:38;6.60;99.90
44487;DHT22;30191;50.908;6.962;2022-12-07T16:49:05;6.60;99.90
44487;DHT22;30191;50.908;6.962;2022-12-07T16:51:30;6.60;99.90
44487;DHT22;30191;50.908;6.962;2022-12-07T16:53:57;6.60;99.90
44487;DHT22;30191;50.908;6.962;2022-12-07T16:56:22;6.60;99.90
44487;DHT22;30191;50.908;6.962;2022-12-07T16:58:48;6.60;99.90
44487;DHT22;30191;50.908;6.962;2022-12-07T17:01:17;6.60;99.90
44487;DHT22;30191;50.908;6.962;2022-12-07T17:03:43;6.60;99.90
44487;DHT22;30191;50.908;6.962;2022-12-07T17:06:18;6.50;99.90
44487;DHT22;30191;50.908;6.962;2022-12-07T17:08:44;6.60;99.90
44487;DHT22;30191;50.908;6.962;2022-12-07T17:11:26;6.60;99.90
44487;DHT22;30191;50.908;6.962;2022-12-07T17:13:52;6.60;99.90
44487;DHT22;30191;50.908;6.962;2022-12-07T17:16:36;6.60;99.90
44487;DHT22;30191;50.908;6.962;2022-12-07T17:19:06;6.60;99.90
44487;DHT22;30191;50.908;6.962;2022-12-07T17:21:33;6.50;99.90
44487;DHT22;30191;50.908;6.962;2022-12-07T17:23:59;6.60;99.90
44487;DHT22;30191;50.908;6.962;2022-12-07T17:26:28;6.60;99.90
44487;DHT22;30191;50.908;6.962;2022-12-07T17:28:54;6.60;99.90
44487;DHT22;30191;50.908;6.962;2022-12-07T17:31:22;6.50;99.90
44487;DHT22;30191;50.908;6.962;2022-12-07T17:33:47;6.50;99.90
44487;DHT22;30191;50.908;6.962;2022-12-07T17:36:25;6.50;99.90
44487;DHT22;30191;50.908;6.962;2022-12-07T17:38:51;6.50;99.90
44487;DHT22;30191;50.908;6.962;2022-12-07T17:41:20;6.50;99.90
44487;DHT22;30191;50.908;6.962;2022-12-07T17:44:21;6.60;99.90
44487;DHT22;30191;50.908;6.962;2022-12-07T17:46:50;6.60;99.90
44487;DHT22;30191;50.908;6.962;2022-12-07T17:49:20;6.60;99.90
44487;DHT22;30191;50.908;6.962;2022-12-07T17:51:45;6.60;99.90
44487;DHT22;30191;50.908;6.962;2022-12-07T17:54:30;6.60;99.90
44487;DHT22;30191;50.908;6.962;2022-12-07T17:56:56;6.60;99.90
44487;DHT22;30191;50.908;6.962;2022-12-07T17:59:22;6.60;99.90